Time;durP1;ratioP1;P1;durP2;ratioP2;P2;SDS_P1;SDS_P2;PMS_P1;PMS_P2;Temp;Humidity;BMP_temperature;BMP_pressure;BME280_temperature;BME280_humidity;BME280_pressure;Samples;Min_cycle;Max_cycle;Signal;HPM_P1;HPM_P2
2024/02/14 00:01:51;;;;;;;0.10;0.10;;;;;;;10.94;76.17;99787.81;7362593;19;20058;-61
2024/02/14 00:04:16;;;;;;;0.10;0.10;;;;;;;10.96;76.25;99786.03;7361509;19;20021;-61
2024/02/14 00:06:42;;;;;;;0.10;0.10;;;;;;;10.89;76.65;99770.56;7362098;19;20505;-62
2024/02/14 00:09:08;;;;;;;0.10;0.10;;;;;;;10.95;76.10;99777.34;7361745;19;20327;-61
2024/02/14 00:11:33;;;;;;;0.10;0.10;;;;;;;10.98;76.42;99774.59;7364419;19;20010;-61
2024/02/14 00:14:00;;;;;;;0.10;0.10;;;;;;;11.00;76.03;99777.13;7359579;19;20018;-61
2024/02/14 00:16:25;;;;;;;0.10;0.10;;;;;;;10.99;76.45;99775.44;7365466;19;20434;-61
2024/02/14 00:18:50;;;;;;;0.10;0.10;;;;;;;10.90;76.47;99761.84;7368254;19;20125;-61
2024/02/14 00:21:16;;;;;;;0.10;0.10;;;;;;;10.98;76.09;99773.75;7365791;19;20013;-61
2024/02/14 00:23:42;;;;;;;0.10;0.10;;;;;;;10.89;76.24;99764.50;7367436;19;20028;-61
2024/02/14 00:26:07;;;;;;;0.10;0.10;;;;;;;10.94;76.53;99770.38;7370368;19;20006;-62
2024/02/14 00:28:33;;;;;;;0.10;0.10;;;;;;;10.95;76.19;99774.72;7368457;19;20498;-61
2024/02/14 00:30:58;;;;;;;0.10;0.10;;;;;;;10.94;76.03;99773.00;7366455;19;20018;-61
2024/02/14 00:33:24;;;;;;;0.10;0.10;;;;;;;10.93;76.18;99781.75;7364770;19;20006;-61
2024/02/14 00:35:49;;;;;;;0.10;0.10;;;;;;;10.93;76.14;99773.06;7370537;19;20006;-61
2024/02/14 00:38:14;;;;;;;0.10;0.10;;;;;;;10.79;76.26;99747.47;7364187;19;20015;-61
2024/02/14 00:40:40;;;;;;;0.00;0.00;;;;;;;10.90;76.54;99766.22;7367704;19;20471;-61
2024/02/14 00:43:05;;;;;;;0.00;0.00;;;;;;;10.73;76.16;99745.09;7363680;19;20432;-61
2024/02/14 00:45:31;;;;;;;0.10;0.10;;;;;;;10.88;76.51;99762.78;7349601;19;20006;-61
2024/02/14 00:47:56;;;;;;;0.10;0.10;;;;;;;10.72;76.19;99735.59;7358430;19;20010;-61
2024/02/14 00:50:22;;;;;;;0.10;0.10;;;;;;;10.86;76.20;99759.41;7363755;19;20006;-61
2024/02/14 00:52:47;;;;;;;0.10;0.10;;;;;;;10.84;76.04;99761.22;7365500;19;20398;-61
2024/02/14 00:55:12;;;;;;;0.10;0.10;;;;;;;10.81;76.44;99772.63;7364418;19;20450;-61
2024/02/14 00:57:38;;;;;;;0.10;0.10;;;;;;;10.79;76.43;99771.81;7367783;19;20011;-61
2024/02/14 01:00:06;;;;;;;0.10;0.10;;;;;;;10.59;76.36;99748.25;7367014;19;20015;-61
2024/02/14 01:02:31;;;;;;;0.10;0.10;;;;;;;10.38;76.22;99714.22;7369111;19;20009;-62
2024/02/14 01:04:57;;;;;;;0.10;0.10;;;;;;;10.72;76.61;99769.53;7368140;19;20007;-61
2024/02/14 01:07:22;;;;;;;0.10;0.10;;;;;;;10.61;76.19;99757.72;7366283;19;20002;-61
2024/02/14 01:09:48;;;;;;;0.10;0.10;;;;;;;10.69;76.70;99772.25;7368026;19;20002;-61
2024/02/14 01:12:13;;;;;;;0.10;0.10;;;;;;;10.67;76.35;99768.84;7370521;19;20006;-61
2024/02/14 01:14:38;;;;;;;0.10;0.10;;;;;;;10.48;76.76;99751.25;7367864;19;19995;-61
2024/02/14 01:17:04;;;;;;;0.15;0.15;;;;;;;10.59;76.82;99763.91;7366046;19;20023;-61
2024/02/14 01:19:29;;;;;;;0.10;0.10;;;;;;;10.61;76.91;99765.56;7362758;19;20015;-61
2024/02/14 01:21:56;;;;;;;0.10;0.10;;;;;;;10.58;76.58;99760.44;7366105;19;19999;-61
2024/02/14 01:24:22;;;;;;;0.10;0.10;;;;;;;10.64;76.91;99767.19;7362461;19;20037;-61
2024/02/14 01:26:49;;;;;;;0.10;0.10;;;;;;;10.59;76.96;99754.34;7365409;19;19994;-61
2024/02/14 01:29:16;;;;;;;0.10;0.10;;;;;;;10.61;76.82;99765.56;7367957;19;20746;-61
2024/02/14 01:31:42;;;;;;;0.10;0.10;;;;;;;10.57;76.65;99756.13;7365776;19;20030;-61
2024/02/14 01:34:07;;;;;;;0.10;0.10;;;;;;;10.62;76.49;99767.25;7365854;19;20657;-61
2024/02/14 01:36:32;;;;;;;0.10;0.10;;;;;;;10.45;76.62;99740.94;7368798;19;20466;-61
2024/02/14 01:38:58;;;;;;;0.10;0.10;;;;;;;10.60;76.64;99769.09;7367889;19;20006;-62
2024/02/14 01:41:23;;;;;;;0.10;0.10;;;;;;;10.57;76.79;99763.13;7362092;19;20038;-61
2024/02/14 01:43:49;;;;;;;0.10;0.10;;;;;;;10.61;77.00;99764.72;7363000;19;20003;-62
2024/02/14 01:46:15;;;;;;;0.10;0.10;;;;;;;10.60;76.89;99763.88;7368803;19;20474;-60
2024/02/14 01:48:42;;;;;;;0.10;0.10;;;;;;;10.62;76.58;99755.97;7368184;19;20013;-61
2024/02/14 01:51:09;;;;;;;0.10;0.10;;;;;;;10.62;76.88;99756.81;7369008;19;20007;-62
2024/02/14 01:53:37;;;;;;;0.10;0.10;;;;;;;10.62;76.97;99754.19;7364137;19;20017;-61
2024/02/14 01:56:04;;;;;;;;;;;;;;;10.67;76.16;99764.47;7370212;19;20014;-61
2024/02/14 01:58:30;;;;;;;0.10;0.10;;;;;;;10.63;76.34;99758.50;7367940;19;19967;-62
2024/02/14 02:00:58;;;;;;;0.00;0.00;;;;;;;10.63;76.79;99757.66;7366217;19;20015;-62
2024/02/14 02:03:25;;;;;;;0.05;0.05;;;;;;;10.61;76.44;99760.34;7361865;19;20493;-62
2024/02/14 02:05:52;;;;;;;0.10;0.10;;;;;;;10.62;76.69;99756.81;7366044;19;20017;-61
2024/02/14 02:08:17;;;;;;;0.10;0.10;;;;;;;10.62;76.53;99764.66;7365765;19;20062;-61
2024/02/14 02:10:43;;;;;;;0.10;0.10;;;;;;;10.62;76.52;99754.19;7369205;19;20010;-61
2024/02/14 02:13:09;;;;;;;0.10;0.10;;;;;;;10.52;76.44;99741.56;7364032;19;20009;-61
2024/02/14 02:15:34;;;;;;;0.00;0.00;;;;;;;10.64;76.64;99755.03;7368774;19;20022;-61
2024/02/14 02:18:02;;;;;;;0.03;0.03;;;;;;;10.67;76.54;99753.19;7366798;19;20390;-61
2024/02/14 02:20:28;;;;;;;0.10;0.10;;;;;;;10.66;76.93;99760.16;7367529;19;20051;-61
2024/02/14 02:22:53;;;;;;;0.10;0.10;;;;;;;10.69;76.67;99769.63;7361947;19;20589;-61
2024/02/14 02:25:23;;;;;;;0.10;0.10;;;;;;;10.71;76.70;99762.59;7368857;19;20017;-61
2024/02/14 02:27:48;;;;;;;0.10;0.10;;;;;;;10.64;76.74;99747.19;7361705;19;20010;-61
2024/02/14 02:30:14;;;;;;;0.10;0.10;;;;;;;10.78;76.32;99756.22;7364057;19;20629;-60
2024/02/14 02:32:41;;;;;;;0.10;0.10;;;;;;;10.82;76.70;99758.66;7362811;19;20264;-61
2024/02/14 02:35:06;;;;;;;0.00;0.00;;;;;;;10.88;76.69;99757.56;7365203;19;20979;-61
2024/02/14 02:37:33;;;;;;;0.10;0.10;;;;;;;10.93;76.48;99745.19;7361164;19;20013;-65
2024/02/14 02:39:58;;;;;;;0.10;0.10;;;;;;;11.00;76.38;99743.16;7365964;19;20010;-62
2024/02/14 02:42:23;;;;;;;0.10;0.10;;;;;;;11.06;76.35;99743.78;7364645;19;20014;-61
2024/02/14 02:44:50;;;;;;;0.10;0.10;;;;;;;11.06;76.54;99730.72;7366770;19;20014;-61
2024/02/14 02:47:16;;;;;;;0.10;0.10;;;;;;;11.21;76.76;99749.31;7364943;19;20013;-61
2024/02/14 02:49:44;;;;;;;0.10;0.10;;;;;;;11.26;76.41;99743.00;7363893;19;20007;-61
2024/02/14 02:52:10;;;;;;;0.10;0.10;;;;;;;11.30;76.23;99736.69;7364214;19;20042;-61
2024/02/14 02:54:36;;;;;;;0.10;0.10;;;;;;;11.32;76.05;99737.50;7365134;19;20025;-62
2024/02/14 02:57:03;;;;;;;0.10;0.10;;;;;;;11.34;76.00;99734.81;7368075;19;20474;-61
2024/02/14 02:59:32;;;;;;;0.10;0.10;;;;;;;11.30;75.93;99725.41;7362377;19;20015;-61
2024/02/14 03:01:58;;;;;;;0.10;0.10;;;;;;;11.44;76.20;99744.00;7362066;19;20017;-61
2024/02/14 03:04:24;;;;;;;0.10;0.10;;;;;;;11.46;76.24;99744.78;7366073;19;20042;-61
2024/02/14 03:06:49;;;;;;;0.10;0.10;;;;;;;11.49;75.81;99738.56;7362239;19;20746;-61
2024/02/14 03:09:15;;;;;;;0.10;0.10;;;;;;;11.50;75.77;99729.81;7355665;19;20018;-61
2024/02/14 03:11:40;;;;;;;0.10;0.10;;;;;;;11.54;76.14;99734.00;7364225;19;20017;-61
2024/02/14 03:14:07;;;;;;;0.10;0.10;;;;;;;11.57;75.95;99739.09;7360880;19;20010;-61
2024/02/14 03:16:33;;;;;;;0.10;0.10;;;;;;;11.60;75.89;99737.19;7365753;19;20015;-61
2024/02/14 03:18:59;;;;;;;0.10;0.10;;;;;;;11.63;75.60;99747.53;7365692;19;20021;-61
2024/02/14 03:21:24;;;;;;;0.10;0.10;;;;;;;11.63;75.95;99737.06;7361326;19;20026;-62
2024/02/14 03:23:49;;;;;;;0.10;0.10;;;;;;;11.67;75.60;99737.81;7365161;19;20372;-61
2024/02/14 03:26:15;;;;;;;0.10;0.10;;;;;;;11.72;75.51;99737.63;7358773;19;20208;-61
2024/02/14 03:28:40;;;;;;;0.10;0.10;;;;;;;11.75;75.83;99734.84;7365603;19;20018;-61
2024/02/14 03:31:06;;;;;;;0.10;0.10;;;;;;;11.78;75.42;99734.72;7360721;19;21077;-61
2024/02/14 03:33:31;;;;;;;0.10;0.10;;;;;;;11.80;75.43;99727.66;7363216;19;20006;-62
2024/02/14 03:35:56;;;;;;;0.10;0.10;;;;;;;11.81;75.67;99734.56;7362671;19;20520;-61
2024/02/14 03:38:28;;;;;;;0.10;0.10;;;;;;;11.76;75.19;99716.50;7365882;19;21311;-61
2024/02/14 03:40:54;;;;;;;0.15;0.15;;;;;;;11.83;75.54;99730.19;7364333;19;20050;-61
2024/02/14 03:43:19;;;;;;;0.10;0.10;;;;;;;11.83;75.38;99731.03;7363322;19;20014;-61
2024/02/14 03:45:46;;;;;;;0.00;0.00;;;;;;;11.81;75.47;99730.22;7366278;19;20007;-61
2024/02/14 03:48:12;;;;;;;0.10;0.10;;;;;;;11.80;75.57;99727.66;7370321;19;20013;-62
2024/02/14 03:50:40;;;;;;;0.15;0.15;;;;;;;11.84;75.69;99724.03;7367477;19;20006;-61
2024/02/14 03:53:06;;;;;;;0.10;0.10;;;;;;;11.86;75.77;99732.66;7369088;19;19999;-61
2024/02/14 03:55:32;;;;;;;0.10;0.10;;;;;;;11.78;75.72;99719.03;7368529;19;20011;-62
2024/02/14 03:57:57;;;;;;;0.10;0.10;;;;;;;11.90;75.42;99736.84;7368374;19;20545;-61
2024/02/14 04:00:22;;;;;;;0.10;0.10;;;;;;;11.87;75.66;99729.13;7371557;19;20965;-61
2024/02/14 04:02:49;;;;;;;0.10;0.10;;;;;;;11.94;75.52;99730.56;7368389;19;20521;-61
2024/02/14 04:05:14;;;;;;;0.10;0.10;;;;;;;11.97;75.47;99733.06;7372622;19;20018;-61
2024/02/14 04:07:40;;;;;;;0.10;0.10;;;;;;;12.00;75.76;99722.44;7368357;19;20042;-61
2024/02/14 04:10:06;;;;;;;0.10;0.10;;;;;;;11.91;75.22;99712.38;7372119;19;20014;-61
2024/02/14 04:12:32;;;;;;;0.10;0.10;;;;;;;12.02;75.24;99725.00;7368821;19;20007;-61
2024/02/14 04:14:57;;;;;;;0.10;0.10;;;;;;;12.05;75.52;99715.22;7371827;19;20017;-62
2024/02/14 04:17:24;;;;;;;0.10;0.10;;;;;;;12.07;75.29;99715.19;7350959;19;20014;-61
2024/02/14 04:19:50;;;;;;;0.10;0.10;;;;;;;12.10;75.71;99705.41;7366837;19;20022;-61
2024/02/14 04:22:15;;;;;;;0.10;0.10;;;;;;;12.12;75.64;99708.81;7368665;19;20006;-61
2024/02/14 04:24:40;;;;;;;0.10;0.10;;;;;;;12.14;75.48;99701.75;7367669;19;20006;-62
2024/02/14 04:27:06;;;;;;;0.10;0.10;;;;;;;12.16;75.25;99696.41;7371296;19;20798;-61
2024/02/14 04:29:33;;;;;;;0.10;0.10;;;;;;;12.17;75.55;99696.38;7368263;19;20034;-61
2024/02/14 04:31:59;;;;;;;0.10;0.10;;;;;;;12.18;75.48;99692.84;7370208;19;20025;-61
2024/02/14 04:34:25;;;;;;;0.10;0.10;;;;;;;12.16;75.37;99689.41;7363829;19;20477;-61
2024/02/14 04:36:51;;;;;;;0.13;0.13;;;;;;;12.14;75.39;99690.41;7371017;19;20833;-61
2024/02/14 04:39:17;;;;;;;0.10;0.10;;;;;;;12.19;75.57;99694.53;7365798;19;20033;-61
2024/02/14 04:41:42;;;;;;;0.10;0.10;;;;;;;12.20;75.17;99696.22;7366076;19;20017;-61
2024/02/14 04:44:08;;;;;;;0.10;0.10;;;;;;;12.21;75.47;99699.69;7370527;19;20387;-61
2024/02/14 04:46:34;;;;;;;0.10;0.10;;;;;;;12.22;75.17;99703.19;7371119;19;20491;-61
2024/02/14 04:49:02;;;;;;;0.10;0.10;;;;;;;12.22;75.13;99708.41;7368884;19;20007;-61
2024/02/14 04:51:31;;;;;;;0.20;0.20;;;;;;;12.06;75.50;99682.91;7370115;19;20504;-61
2024/02/14 04:54:00;;;;;;;0.13;0.13;;;;;;;12.12;75.31;99698.34;7368686;19;20024;-61
2024/02/14 04:56:26;;;;;;;0.10;0.10;;;;;;;12.24;75.66;99709.19;7365051;19;20010;-61
2024/02/14 04:58:53;;;;;;;0.20;0.20;;;;;;;12.25;75.65;99714.34;7370370;19;20081;-61
2024/02/14 05:01:19;;;;;;;0.10;0.10;;;;;;;12.25;75.25;99711.72;7369782;19;20021;-61
2024/02/14 05:03:44;;;;;;;0.10;0.10;;;;;;;12.20;75.26;99698.00;7368571;19;20014;-61
2024/02/14 05:06:09;;;;;;;0.10;0.10;;;;;;;12.24;75.52;99709.19;7370558;19;20018;-61
2024/02/14 05:08:35;;;;;;;0.10;0.10;;;;;;;12.27;75.46;99711.66;7370191;19;20079;-62
2024/02/14 05:11:00;;;;;;;0.10;0.10;;;;;;;12.26;75.56;99712.56;7368161;19;20011;-61
2024/02/14 05:13:26;;;;;;;0.10;0.10;;;;;;;12.25;75.69;99711.72;7367746;19;20018;-61
2024/02/14 05:15:51;;;;;;;0.10;0.10;;;;;;;12.26;75.19;99702.09;7370055;19;20029;-61
2024/02/14 05:18:16;;;;;;;0.10;0.10;;;;;;;12.26;75.42;99709.94;7367895;19;20010;-61
2024/02/14 05:20:42;;;;;;;0.10;0.10;;;;;;;12.24;75.34;99709.19;7369467;19;20025;-61
2024/02/14 05:23:09;;;;;;;0.10;0.10;;;;;;;12.27;75.49;99723.00;7369044;19;20383;-62
2024/02/14 05:25:34;;;;;;;0.10;0.10;;;;;;;12.26;75.77;99723.03;7366664;19;20015;-61
2024/02/14 05:28:00;;;;;;;0.00;0.00;;;;;;;12.27;75.41;99725.59;7370013;19;20057;-61
2024/02/14 05:30:26;;;;;;;0.10;0.10;;;;;;;12.28;75.58;99715.97;7365273;19;20042;-61
2024/02/14 05:32:52;;;;;;;0.10;0.10;;;;;;;12.16;75.70;99699.88;7366198;19;20021;-61
2024/02/14 05:35:18;;;;;;;0.10;0.10;;;;;;;12.31;75.80;99718.44;7366003;19;20497;-61
2024/02/14 05:37:43;;;;;;;0.10;0.10;;;;;;;12.31;75.43;99718.44;7370703;19;20046;-61
2024/02/14 05:40:09;;;;;;;0.10;0.10;;;;;;;12.34;75.35;99718.31;7363948;19;20003;-61
2024/02/14 05:42:34;;;;;;;0.10;0.10;;;;;;;12.35;75.62;99722.63;7368558;19;20015;-61
2024/02/14 05:45:00;;;;;;;0.10;0.10;;;;;;;12.37;75.84;99723.41;7365038;19;20106;-61
2024/02/14 05:47:25;;;;;;;0.10;0.10;;;;;;;12.27;75.78;99702.03;7368931;19;20014;-61
2024/02/14 05:49:50;;;;;;;0.10;0.10;;;;;;;12.39;75.39;99721.56;7367244;19;20013;-61
2024/02/14 05:52:16;;;;;;;0.10;0.10;;;;;;;12.40;75.71;99716.25;7368899;19;20103;-62
2024/02/14 05:54:42;;;;;;;0.10;0.10;;;;;;;12.41;75.39;99714.47;7364822;19;20013;-61
2024/02/14 05:57:08;;;;;;;0.10;0.10;;;;;;;12.43;75.52;99723.13;7368261;19;20423;-61
2024/02/14 05:59:33;;;;;;;0.10;0.10;;;;;;;12.46;75.83;99717.75;7367717;19;20106;-62
2024/02/14 06:01:59;;;;;;;0.10;0.10;;;;;;;12.46;75.40;99713.34;7367026;19;20105;-62
2024/02/14 06:04:24;;;;;;;0.10;0.10;;;;;;;12.43;75.58;99723.13;7365940;19;20485;-61
2024/02/14 06:06:49;;;;;;;0.10;0.10;;;;;;;12.44;75.72;99714.34;7368111;19;20042;-61
2024/02/14 06:09:16;;;;;;;0.10;0.10;;;;;;;12.51;75.45;99707.91;7365464;19;20031;-61
2024/02/14 06:11:42;;;;;;;0.10;0.10;;;;;;;12.51;75.78;99715.75;7366256;19;20739;-62
2024/02/14 06:14:08;;;;;;;0.10;0.10;;;;;;;12.51;75.53;99721.00;7364572;19;20011;-61
2024/02/14 06:16:34;;;;;;;0.10;0.10;;;;;;;12.54;75.78;99736.56;7368516;19;20011;-61
2024/02/14 06:19:00;;;;;;;0.10;0.10;;;;;;;12.51;75.90;99725.38;7365547;19;20011;-61
2024/02/14 06:21:26;;;;;;;0.10;0.10;;;;;;;12.57;75.93;99725.09;7366042;19;20501;-61
2024/02/14 06:23:52;;;;;;;0.10;0.10;;;;;;;12.53;75.73;99721.78;7362558;19;20003;-61
2024/02/14 06:26:18;;;;;;;0.00;0.00;;;;;;;12.59;75.36;99726.75;7367640;19;20019;-61
2024/02/14 06:28:46;;;;;;;0.10;0.10;;;;;;;12.57;75.34;99720.72;7365364;19;20014;-61
2024/02/14 06:31:12;;;;;;;0.10;0.10;;;;;;;12.60;75.42;99733.66;7366736;19;20018;-61
2024/02/14 06:33:37;;;;;;;0.10;0.10;;;;;;;12.52;75.45;99712.25;7360311;19;20021;-61
2024/02/14 06:36:03;;;;;;;0.10;0.10;;;;;;;12.61;75.41;99726.66;7366745;19;20014;-61
2024/02/14 06:38:31;;;;;;;0.10;0.10;;;;;;;12.62;75.73;99731.84;7365380;19;20010;-61
2024/02/14 06:40:56;;;;;;;0.10;0.10;;;;;;;12.61;75.73;99732.75;7366713;19;20408;-61
2024/02/14 06:43:22;;;;;;;0.10;0.10;;;;;;;12.61;75.50;99721.41;7360524;19;20031;-61
2024/02/14 06:45:47;;;;;;;0.10;0.10;;;;;;;12.61;75.81;99726.66;7366891;19;20014;-61
2024/02/14 06:48:13;;;;;;;0.10;0.10;;;;;;;12.60;75.43;99727.59;7360906;19;20010;-61
2024/02/14 06:50:38;;;;;;;0.10;0.10;;;;;;;12.59;75.81;99731.97;7365239;19;20086;-61
2024/02/14 06:53:04;;;;;;;0.10;0.10;;;;;;;12.59;75.42;99739.84;7359316;19;20708;-61
2024/02/14 06:55:31;;;;;;;0.20;0.20;;;;;;;12.50;75.45;99724.53;7368327;19;20530;-61
2024/02/14 06:57:58;;;;;;;0.10;0.10;;;;;;;12.58;75.65;99745.16;7360103;19;20890;-61
2024/02/14 07:00:23;;;;;;;0.10;0.10;;;;;;;12.58;75.53;99746.00;7366853;19;20553;-61
2024/02/14 07:02:49;;;;;;;0.20;0.20;;;;;;;12.56;75.88;99739.13;7366074;19;20062;-61
2024/02/14 07:05:14;;;;;;;0.10;0.10;;;;;;;12.58;75.92;99743.38;7359691;19;20110;-61
2024/02/14 07:07:41;;;;;;;0.10;0.10;;;;;;;12.40;75.67;99707.56;7365659;19;20007;-61
2024/02/14 07:10:07;;;;;;;0.03;0.03;;;;;;;12.57;75.99;99733.81;7366328;19;20031;-60
2024/02/14 07:12:33;;;;;;;0.10;0.10;;;;;;;12.57;75.83;99725.97;7363347;19;20011;-62
2024/02/14 07:14:58;;;;;;;0.10;0.10;;;;;;;12.57;75.94;99744.31;7366042;19;20025;-61
2024/02/14 07:17:24;;;;;;;0.10;0.10;;;;;;;12.56;76.09;99747.81;7362901;19;20007;-61
2024/02/14 07:19:49;;;;;;;0.10;0.10;;;;;;;12.54;75.92;99741.81;7365273;19;20483;-61
2024/02/14 07:22:15;;;;;;;0.10;0.10;;;;;;;12.41;75.74;99724.94;7360387;19;20764;-61
2024/02/14 07:24:42;;;;;;;0.10;0.10;;;;;;;12.44;75.58;99732.69;7362955;19;20020;-61
2024/02/14 07:27:08;;;;;;;0.00;0.00;;;;;;;12.51;75.76;99741.09;7366250;19;20458;-61
2024/02/14 07:29:34;;;;;;;0.10;0.10;;;;;;;12.50;75.87;99734.16;7360465;19;20014;-61
2024/02/14 07:32:02;;;;;;;0.10;0.10;;;;;;;12.51;75.87;99734.09;7361974;19;20408;-62
2024/02/14 07:34:27;;;;;;;0.10;0.10;;;;;;;12.33;75.98;99707.00;7363084;19;20551;-61
2024/02/14 07:36:52;;;;;;;0.10;0.10;;;;;;;12.48;75.81;99739.47;7362748;19;20010;-61
2024/02/14 07:39:18;;;;;;;0.10;0.10;;;;;;;12.45;76.27;99739.59;7361911;19;20032;-62
2024/02/14 07:41:44;;;;;;;0.10;0.10;;;;;;;12.40;76.14;99736.34;7363004;19;20010;-61
2024/02/14 07:44:09;;;;;;;0.10;0.10;;;;;;;12.45;75.95;99745.69;7360935;19;20477;-61
2024/02/14 07:46:35;;;;;;;0.10;0.10;;;;;;;12.45;76.18;99747.47;7364334;19;20015;-61
2024/02/14 07:49:00;;;;;;;0.10;0.10;;;;;;;12.45;76.02;99750.94;7361000;19;20018;-61
2024/02/14 07:51:27;;;;;;;0.10;0.10;;;;;;;12.45;75.96;99757.94;7361742;19;20018;-62
2024/02/14 07:53:53;;;;;;;0.10;0.10;;;;;;;12.43;76.02;99738.84;7360612;19;20020;-61
2024/02/14 07:56:18;;;;;;;0.10;0.10;;;;;;;12.45;76.02;99752.69;7363299;19;20010;-61
2024/02/14 07:58:44;;;;;;;0.10;0.10;;;;;;;12.40;76.29;99746.81;7360672;19;20015;-61
2024/02/14 08:01:09;;;;;;;0.10;0.10;;;;;;;12.39;76.25;99750.38;7365789;19;20487;-61
2024/02/14 08:03:35;;;;;;;0.10;0.10;;;;;;;12.43;76.02;99759.78;7362490;19;20090;-61
2024/02/14 08:06:00;;;;;;;0.10;0.10;;;;;;;12.41;76.22;99759.00;7362429;19;20421;-61
2024/02/14 08:08:27;;;;;;;0.10;0.10;;;;;;;12.28;76.14;99742.16;7361965;19;20015;-61
2024/02/14 08:10:52;;;;;;;0.20;0.20;;;;;;;12.30;76.18;99749.00;7360470;19;20010;-61
2024/02/14 08:13:18;;;;;;;0.10;0.10;;;;;;;12.40;76.57;99765.16;7360543;19;20906;-61
2024/02/14 08:15:43;;;;;;;0.10;0.10;;;;;;;12.40;76.12;99767.78;7361988;19;20033;-61
2024/02/14 08:18:09;;;;;;;0.10;0.10;;;;;;;12.39;76.32;99771.31;7363017;19;20010;-61
2024/02/14 08:20:34;;;;;;;0.10;0.10;;;;;;;12.41;76.36;99782.56;7360451;19;20625;-61
2024/02/14 08:23:00;;;;;;;0.10;0.10;;;;;;;12.41;76.61;99778.16;7361919;19;20455;-60
2024/02/14 08:25:26;;;;;;;0.10;0.10;;;;;;;12.43;76.27;99783.34;7360883;19;20006;-62
2024/02/14 08:27:52;;;;;;;0.10;0.10;;;;;;;12.40;76.55;99780.88;7360416;19;20015;-61
2024/02/14 08:30:19;;;;;;;0.10;0.10;;;;;;;12.39;76.41;99779.16;7356260;19;20010;-61
2024/02/14 08:32:45;;;;;;;0.08;0.08;;;;;;;12.50;76.49;99791.78;7356608;19;20015;-61
2024/02/14 08:35:11;;;;;;;0.10;0.10;;;;;;;12.52;76.28;99787.31;7368197;19;20021;-61
2024/02/14 08:37:38;;;;;;;0.10;0.10;;;;;;;12.53;76.13;99787.25;7369470;19;20010;-62
2024/02/14 08:40:05;;;;;;;0.10;0.10;;;;;;;12.56;76.34;99797.56;7365016;19;20984;-61
2024/02/14 08:42:31;;;;;;;;;;;;;;;12.65;76.16;99797.16;7368930;19;20492;-62
2024/02/14 08:44:56;;;;;;;0.10;0.10;;;;;;;12.62;75.90;99792.09;7368484;19;19911;-61
2024/02/14 08:47:22;;;;;;;0.10;0.10;;;;;;;12.64;76.11;99795.47;7368201;19;20042;-61
2024/02/14 08:49:47;;;;;;;0.10;0.10;;;;;;;12.67;76.42;99792.72;7368688;19;20015;-61
2024/02/14 08:52:13;;;;;;;0.10;0.10;;;;;;;12.60;76.14;99772.94;7368943;19;20018;-61
2024/02/14 08:54:39;;;;;;;0.10;0.10;;;;;;;12.73;75.85;99783.72;7365352;19;20512;-62
2024/02/14 08:57:04;;;;;;;0.20;0.20;;;;;;;12.70;75.83;99781.25;7367432;19;20007;-61
2024/02/14 08:59:30;;;;;;;0.10;0.10;;;;;;;12.81;76.14;99788.59;7370604;19;20089;-61
2024/02/14 09:01:56;;;;;;;0.10;0.10;;;;;;;12.86;75.84;99794.47;7370435;19;20395;-61
2024/02/14 09:04:21;;;;;;;0.10;0.10;;;;;;;12.89;76.27;99803.06;7365501;19;20014;-61
2024/02/14 09:06:46;;;;;;;0.10;0.10;;;;;;;12.91;75.72;99813.44;7369338;19;20042;-62
2024/02/14 09:09:14;;;;;;;0.10;0.10;;;;;;;12.97;76.11;99819.25;7367300;19;20013;-62
2024/02/14 09:11:40;;;;;;;0.10;0.10;;;;;;;13.04;75.93;99811.97;7367588;19;20770;-61
2024/02/14 09:14:06;;;;;;;0.10;0.10;;;;;;;12.99;75.64;99804.31;7365004;19;20010;-61
2024/02/14 09:16:33;;;;;;;0.10;0.10;;;;;;;13.11;76.05;99816.00;7367004;19;20043;-62
2024/02/14 09:18:59;;;;;;;0.10;0.10;;;;;;;13.12;75.67;99812.44;7367617;19;20014;-61
2024/02/14 09:21:24;;;;;;;0.20;0.20;;;;;;;13.09;75.46;99807.38;7368731;19;20017;-61
2024/02/14 09:23:50;;;;;;;0.10;0.10;;;;;;;13.23;75.67;99820.69;7365170;19;20027;-61
2024/02/14 09:26:16;;;;;;;0.10;0.10;;;;;;;13.15;75.41;99804.44;7369345;19;20014;-61
2024/02/14 09:28:42;;;;;;;0.10;0.10;;;;;;;13.30;75.50;99825.66;7363888;19;20842;-61
2024/02/14 09:31:10;;;;;;;0.10;0.10;;;;;;;13.32;75.78;99823.78;7365592;19;20018;-61
2024/02/14 09:33:36;;;;;;;0.10;0.10;;;;;;;13.35;75.39;99823.66;7365260;19;20293;-61
2024/02/14 09:36:02;;;;;;;0.10;0.10;;;;;;;13.29;75.56;99808.22;7369378;19;20024;-61
2024/02/14 09:38:29;;;;;;;0.10;0.10;;;;;;;13.39;75.67;99812.09;7364895;19;20006;-61
2024/02/14 09:41:01;;;;;;;0.10;0.10;;;;;;;13.44;75.41;99823.22;7365838;19;20042;-60
2024/02/14 09:43:37;;;;;;;0.10;0.10;;;;;;;13.43;75.17;99821.50;7365490;19;20796;-61
2024/02/14 09:46:03;;;;;;;0.10;0.10;;;;;;;13.45;75.34;99830.16;7367271;19;20013;-61
2024/02/14 09:48:30;;;;;;;0.10;0.10;;;;;;;13.47;75.34;99834.38;7366356;19;20325;-60
2024/02/14 09:50:56;;;;;;;0.10;0.10;;;;;;;13.36;75.43;99820.09;7368642;19;20129;-61
2024/02/14 09:53:23;;;;;;;0.10;0.10;;;;;;;13.51;75.84;99837.72;7365482;19;20011;-60
2024/02/14 09:55:50;;;;;;;0.20;0.20;;;;;;;13.39;75.26;99814.72;7365656;19;20015;-61
2024/02/14 09:58:16;;;;;;;0.10;0.10;;;;;;;13.52;75.64;99831.53;7364910;19;20010;-61
2024/02/14 10:00:42;;;;;;;0.10;0.10;;;;;;;13.53;75.82;99828.00;7368338;19;20808;-61
2024/02/14 10:03:07;;;;;;;0.10;0.10;;;;;;;13.53;75.65;99833.22;7366143;19;20014;-62
2024/02/14 10:05:33;;;;;;;0.10;0.10;;;;;;;13.54;75.61;99832.34;7366156;19;20014;-61
2024/02/14 10:07:58;;;;;;;0.10;0.10;;;;;;;13.48;75.66;99816.88;7365493;19;20013;-61
2024/02/14 10:10:25;;;;;;;0.10;0.10;;;;;;;13.57;75.70;99840.03;7363366;19;20033;-61
2024/02/14 10:12:50;;;;;;;0.10;0.10;;;;;;;13.52;75.66;99835.94;7364195;19;21366;-62
2024/02/14 10:15:16;;;;;;;0.00;0.00;;;;;;;13.56;75.64;99833.09;7366105;19;20133;-61
2024/02/14 10:17:43;;;;;;;0.10;0.10;;;;;;;13.56;75.85;99837.50;7361620;19;20033;-61
2024/02/14 10:20:09;;;;;;;0.10;0.10;;;;;;;13.65;75.91;99843.16;7366411;19;20362;-61
2024/02/14 10:22:36;;;;;;;0.10;0.10;;;;;;;13.67;75.96;99846.53;7364186;19;20006;-61
2024/02/14 10:25:03;;;;;;;0.20;0.20;;;;;;;13.69;75.80;99836.84;7366280;19;20011;-62
2024/02/14 10:27:32;;;;;;;0.10;0.10;;;;;;;13.75;75.62;99833.91;7364924;19;20010;-61
2024/02/14 10:29:57;;;;;;;0.15;0.15;;;;;;;13.82;75.62;99839.69;7363121;19;20019;-61
2024/02/14 10:32:24;;;;;;;0.10;0.10;;;;;;;13.90;75.88;99839.31;7357593;19;20026;-61
2024/02/14 10:34:49;;;;;;;0.10;0.10;;;;;;;14.01;75.63;99844.88;7361352;19;20108;-61
2024/02/14 10:37:18;;;;;;;0.10;0.10;;;;;;;14.14;75.55;99851.22;7363173;19;20062;-62
2024/02/14 10:39:46;;;;;;;0.10;0.10;;;;;;;14.20;75.61;99840.38;7365175;19;20496;-62
2024/02/14 10:42:13;;;;;;;0.10;0.10;;;;;;;14.33;75.20;99850.25;7361966;19;20014;-62
2024/02/14 10:44:38;;;;;;;0.10;0.10;;;;;;;14.44;75.16;99853.16;7362023;19;20132;-61
2024/02/14 10:47:09;;;;;;;0.10;0.10;;;;;;;14.54;75.09;99863.13;7363514;19;20373;-61
2024/02/14 10:49:37;;;;;;;0.10;0.10;;;;;;;14.55;74.99;99858.75;7364497;19;20017;-61
2024/02/14 10:52:06;;;;;;;0.10;0.10;;;;;;;14.61;74.98;99861.06;7359282;19;20011;-61
2024/02/14 10:54:35;;;;;;;0.10;0.10;;;;;;;14.64;74.72;99860.88;7361376;19;20799;-61
2024/02/14 10:57:07;;;;;;;0.20;0.20;;;;;;;14.66;75.10;99864.28;7361751;19;20011;-61
2024/02/14 10:59:34;;;;;;;0.17;0.17;;;;;;;14.57;74.82;99843.75;7363400;19;20011;-61
2024/02/14 11:02:00;;;;;;;0.13;0.13;;;;;;;14.73;75.18;99859.53;7362583;19;20092;-61
2024/02/14 11:04:25;;;;;;;0.10;0.10;;;;;;;14.76;74.97;99856.75;7359434;19;20102;-61
2024/02/14 11:06:56;;;;;;;0.10;0.10;;;;;;;14.83;74.69;99863.38;7347825;19;20007;-61
2024/02/14 11:09:21;;;;;;;0.10;0.10;;;;;;;14.89;74.79;99875.34;7363468;19;20098;-61
2024/02/14 11:11:47;;;;;;;0.10;0.10;;;;;;;14.92;75.04;99875.19;7356579;19;20461;-61
2024/02/14 11:14:18;;;;;;;0.10;0.10;;;;;;;15.01;74.52;99885.22;7359521;19;20015;-61
2024/02/14 11:16:45;;;;;;;0.20;0.20;;;;;;;14.93;74.25;99869.00;7359241;19;20023;-61
2024/02/14 11:19:12;;;;;;;0.00;0.00;;;;;;;15.05;74.71;99886.72;7358137;19;20026;-61
2024/02/14 11:21:42;;;;;;;0.10;0.10;;;;;;;15.10;74.83;99884.69;7361197;19;20014;-61
2024/02/14 11:24:10;;;;;;;0.10;0.10;;;;;;;15.12;74.62;99882.00;7357216;19;20018;-61
2024/02/14 11:26:45;;;;;;;0.05;0.05;;;;;;;15.18;74.86;99886.91;7359279;19;20015;-61
2024/02/14 11:29:15;;;;;;;0.10;0.10;;;;;;;15.20;74.69;99885.88;7359147;19;20019;-61